Time;durP1;ratioP1;P1;durP2;ratioP2;P2;SDS_P1;SDS_P2;PMS_P1;PMS_P2;Temp;Humidity;BMP_temperature;BMP_pressure;BME280_temperature;BME280_humidity;BME280_pressure;Samples;Min_cycle;Max_cycle;Signal;HPM_P1;HPM_P2
2019/06/14 00:00:02;;;;;;;6.250001;5.65;;;;;;;13.73;74.2832;95300.12;;;;
2019/06/14 00:01:03;;;;;;;6.250001;5.65;;;;;;;13.73;74.2832;95300.12;;;;
2019/06/14 00:02:05;;;;;;;6.250001;5.65;;;;;;;13.44;76.14063;95305.49;;;;
2019/06/14 00:03:06;;;;;;;6.250001;5.65;;;;;;;13.44;76.14063;95305.49;;;;
2019/06/14 00:04:07;;;;;;;6.250001;5.65;;;;;;;13.44;76.14063;95305.49;;;;
2019/06/14 00:05:09;;;;;;;6.250001;5.65;;;;;;;13.44;76.14063;95305.49;;;;
2019/06/14 00:06:10;;;;;;;6.250001;5.65;;;;;;;13.44;76.14063;95305.49;;;;
2019/06/14 00:07:11;;;;;;;6.250001;5.65;;;;;;;13.44;76.14063;95305.49;;;;
2019/06/14 00:08:12;;;;;;;6.250001;5.65;;;;;;;13.44;76.14063;95305.49;;;;
2019/06/14 00:09:13;;;;;;;6.250001;5.65;;;;;;;13.44;76.14063;95305.49;;;;
2019/06/14 00:10:14;;;;;;;6.250001;5.65;;;;;;;13.44;76.14063;95305.49;;;;
2019/06/14 00:11:15;;;;;;;6.250001;5.65;;;;;;;13.44;76.14063;95305.49;;;;
2019/06/14 00:12:16;;;;;;;7.000001;6.299999;;;;;;;13.29;76.85645;95322.52;;;;
2019/06/14 00:13:17;;;;;;;7.000001;6.299999;;;;;;;13.29;76.85645;95322.52;;;;
2019/06/14 00:14:18;;;;;;;7.000001;6.299999;;;;;;;13.29;76.85645;95322.52;;;;
2019/06/14 00:15:19;;;;;;;7.000001;6.299999;;;;;;;13.29;76.85645;95322.52;;;;
2019/06/14 00:16:20;;;;;;;7.000001;6.299999;;;;;;;13.29;76.85645;95322.52;;;;
2019/06/14 00:17:21;;;;;;;7.000001;6.299999;;;;;;;13.29;76.85645;95322.52;;;;
2019/06/14 00:18:22;;;;;;;7.000001;6.299999;;;;;;;13.29;76.85645;95322.52;;;;
2019/06/14 00:19:23;;;;;;;7.000001;6.299999;;;;;;;13.29;76.85645;95322.52;;;;
2019/06/14 00:20:24;;;;;;;7.000001;6.299999;;;;;;;13.29;76.85645;95322.52;;;;
2019/06/14 00:21:26;;;;;;;7.000001;6.299999;;;;;;;13.29;76.85645;95322.52;;;;
2019/06/14 00:22:27;;;;;;;7.199999;6.5;;;;;;;13.19;77.4209;95307.34;;;;
2019/06/14 00:23:28;;;;;;;7.199999;6.5;;;;;;;13.19;77.4209;95307.34;;;;
2019/06/14 00:24:29;;;;;;;7.199999;6.5;;;;;;;13.19;77.4209;95307.34;;;;
2019/06/14 00:25:30;;;;;;;7.199999;6.5;;;;;;;13.19;77.4209;95307.34;;;;
2019/06/14 00:26:31;;;;;;;7.199999;6.5;;;;;;;13.19;77.4209;95307.34;;;;
2019/06/14 00:27:32;;;;;;;7.199999;6.5;;;;;;;13.19;77.4209;95307.34;;;;
2019/06/14 00:28:33;;;;;;;7.199999;6.5;;;;;;;13.19;77.4209;95307.34;;;;
2019/06/14 00:29:34;;;;;;;7.199999;6.5;;;;;;;13.19;77.4209;95307.34;;;;
2019/06/14 00:30:35;;;;;;;7.199999;6.5;;;;;;;13.19;77.4209;95307.34;;;;
2019/06/14 00:31:36;;;;;;;7.199999;6.5;;;;;;;13.19;77.4209;95307.34;;;;
2019/06/14 00:32:37;;;;;;;7.199999;6.5;;;;;;;13.19;77.4209;95307.34;;;;
2019/06/14 00:33:38;;;;;;;7.199999;6.5;;;;;;;13.19;77.4209;95307.34;;;;
2019/06/14 00:34:39;;;;;;;7.199999;6.5;;;;;;;13.19;77.4209;95307.34;;;;
2019/06/14 00:35:41;;;;;;;7.199999;6.5;;;;;;;13.19;77.4209;95307.34;;;;
2019/06/14 00:36:42;;;;;;;7.199999;6.5;;;;;;;13.19;77.4209;95307.34;;;;
2019/06/14 00:37:43;;;;;;;7.199999;6.5;;;;;;;13.19;77.4209;95307.34;;;;
2019/06/14 00:38:44;;;;;;;7.199999;6.5;;;;;;;13.19;77.4209;95307.34;;;;
2019/06/14 00:39:45;;;;;;;7.199999;6.5;;;;;;;13.19;77.4209;95307.34;;;;
2019/06/14 00:40:46;;;;;;;7.199999;6.5;;;;;;;13.19;77.4209;95307.34;;;;
2019/06/14 00:41:47;;;;;;;7.199999;6.5;;;;;;;13.19;77.4209;95307.34;;;;
2019/06/14 00:42:48;;;;;;;7.199999;6.5;;;;;;;13.19;77.4209;95307.34;;;;
2019/06/14 00:43:49;;;;;;;7.45;6.550001;;;;;;;12.94;78.5918;95298.85;;;;
2019/06/14 00:44:50;;;;;;;7.45;6.550001;;;;;;;12.94;78.5918;95298.85;;;;
2019/06/14 00:45:51;;;;;;;7.45;6.550001;;;;;;;12.94;78.5918;95298.85;;;;
2019/06/14 00:46:52;;;;;;;7.45;6.550001;;;;;;;12.94;78.5918;95298.85;;;;
2019/06/14 00:47:53;;;;;;;7.45;6.550001;;;;;;;12.94;78.5918;95298.85;;;;
2019/06/14 00:48:54;;;;;;;7.45;6.550001;;;;;;;12.94;78.5918;95298.85;;;;
2019/06/14 00:49:55;;;;;;;7.45;6.550001;;;;;;;12.94;78.5918;95298.85;;;;
2019/06/14 00:50:57;;;;;;;7.45;6.550001;;;;;;;12.94;78.5918;95298.85;;;;
2019/06/14 00:51:58;;;;;;;7.45;6.550001;;;;;;;12.94;78.5918;95298.85;;;;
2019/06/14 00:52:59;;;;;;;7.45;6.550001;;;;;;;12.94;78.5918;95298.85;;;;
2019/06/14 00:54:00;;;;;;;7.45;6.550001;;;;;;;12.94;78.5918;95298.85;;;;
2019/06/14 00:55:01;;;;;;;7;6.299999;;;;;;;12.78;79.16309;95316.89;;;;
2019/06/14 00:56:03;;;;;;;7;6.299999;;;;;;;12.78;79.16309;95316.89;;;;
2019/06/14 00:57:04;;;;;;;7;6.299999;;;;;;;12.78;79.16309;95316.89;;;;
2019/06/14 00:58:05;;;;;;;7;6.299999;;;;;;;12.78;79.16309;95316.89;;;;
2019/06/14 00:59:06;;;;;;;7;6.299999;;;;;;;12.78;79.16309;95316.89;;;;
2019/06/14 01:00:07;;;;;;;7;6.299999;;;;;;;12.78;79.16309;95316.89;;;;
2019/06/14 01:01:08;;;;;;;7;6.299999;;;;;;;12.78;79.16309;95316.89;;;;
2019/06/14 01:02:10;;;;;;;7;6.299999;;;;;;;12.78;79.16309;95316.89;;;;
2019/06/14 01:03:11;;;;;;;7;6.299999;;;;;;;12.78;79.16309;95316.89;;;;
2019/06/14 01:04:12;;;;;;;7;6.299999;;;;;;;12.78;79.16309;95316.89;;;;
2019/06/14 01:05:13;;;;;;;6.750001;6.15;;;;;;;12.68;79.77832;95306.86;;;;
2019/06/14 01:06:14;;;;;;;6.750001;6.15;;;;;;;12.68;79.77832;95306.86;;;;
2019/06/14 01:07:15;;;;;;;6.750001;6.15;;;;;;;12.68;79.77832;95306.86;;;;
2019/06/14 01:08:16;;;;;;;6.750001;6.15;;;;;;;12.68;79.77832;95306.86;;;;
2019/06/14 01:09:17;;;;;;;6.750001;6.15;;;;;;;12.68;79.77832;95306.86;;;;
2019/06/14 01:10:19;;;;;;;6.750001;6.15;;;;;;;12.68;79.77832;95306.86;;;;
2019/06/14 01:11:20;;;;;;;6.750001;6.15;;;;;;;12.68;79.77832;95306.86;;;;
2019/06/14 01:12:21;;;;;;;6.750001;6.15;;;;;;;12.68;79.77832;95306.86;;;;
2019/06/14 01:13:22;;;;;;;6.750001;6.15;;;;;;;12.68;79.77832;95306.86;;;;
2019/06/14 01:14:23;;;;;;;6.750001;6.15;;;;;;;12.68;79.77832;95306.86;;;;
2019/06/14 01:15:24;;;;;;;7.95;6.699999;;;;;;;12.53;80.38574;95289.42;;;;
2019/06/14 01:16:25;;;;;;;7.95;6.699999;;;;;;;12.53;80.38574;95289.42;;;;
2019/06/14 01:17:27;;;;;;;7.95;6.699999;;;;;;;12.53;80.38574;95289.42;;;;
2019/06/14 01:18:28;;;;;;;7.95;6.699999;;;;;;;12.53;80.38574;95289.42;;;;
2019/06/14 01:19:29;;;;;;;7.95;6.699999;;;;;;;12.53;80.38574;95289.42;;;;
2019/06/14 01:20:30;;;;;;;7.95;6.699999;;;;;;;12.53;80.38574;95289.42;;;;
2019/06/14 01:21:31;;;;;;;7.95;6.699999;;;;;;;12.53;80.38574;95289.42;;;;
2019/06/14 01:22:32;;;;;;;7.95;6.699999;;;;;;;12.53;80.38574;95289.42;;;;
2019/06/14 01:23:33;;;;;;;7.95;6.699999;;;;;;;12.53;80.38574;95289.42;;;;
2019/06/14 01:24:35;;;;;;;7.95;6.699999;;;;;;;12.53;80.38574;95289.42;;;;
2019/06/14 01:25:36;;;;;;;7.95;6.699999;;;;;;;12.53;80.38574;95289.42;;;;
2019/06/14 01:26:37;;;;;;;7.149999;6.5;;;;;;;12.46;80.95117;95295.54;;;;
2019/06/14 01:27:39;;;;;;;7.149999;6.5;;;;;;;12.46;80.95117;95295.54;;;;
2019/06/14 01:28:41;;;;;;;7.149999;6.5;;;;;;;12.46;80.95117;95295.54;;;;
2019/06/14 01:29:42;;;;;;;7.149999;6.5;;;;;;;12.46;80.95117;95295.54;;;;
2019/06/14 01:30:44;;;;;;;7.149999;6.5;;;;;;;12.46;80.95117;95295.54;;;;
2019/06/14 01:31:45;;;;;;;7.149999;6.5;;;;;;;12.46;80.95117;95295.54;;;;
2019/06/14 01:32:46;;;;;;;7.149999;6.5;;;;;;;12.46;80.95117;95295.54;;;;
2019/06/14 01:33:47;;;;;;;7.149999;6.5;;;;;;;12.46;80.95117;95295.54;;;;
2019/06/14 01:34:48;;;;;;;7.149999;6.5;;;;;;;12.46;80.95117;95295.54;;;;
2019/06/14 01:35:49;;;;;;;7.149999;6.5;;;;;;;12.46;80.95117;95295.54;;;;
2019/06/14 01:36:50;;;;;;;8.049999;6.649999;;;;;;;12.32;81.61133;95298.3;;;;
2019/06/14 01:37:51;;;;;;;8.049999;6.649999;;;;;;;12.32;81.61133;95298.3;;;;
2019/06/14 01:38:53;;;;;;;8.049999;6.649999;;;;;;;12.32;81.61133;95298.3;;;;
2019/06/14 01:39:54;;;;;;;8.049999;6.649999;;;;;;;12.32;81.61133;95298.3;;;;
2019/06/14 01:40:55;;;;;;;8.049999;6.649999;;;;;;;12.32;81.61133;95298.3;;;;
2019/06/14 01:41:56;;;;;;;8.049999;6.649999;;;;;;;12.32;81.61133;95298.3;;;;
2019/06/14 01:42:57;;;;;;;8.049999;6.649999;;;;;;;12.32;81.61133;95298.3;;;;
2019/06/14 01:44:00;;;;;;;8.049999;6.649999;;;;;;;12.32;81.61133;95298.3;;;;
2019/06/14 01:45:01;;;;;;;8.049999;6.649999;;;;;;;12.32;81.61133;95298.3;;;;
2019/06/14 01:46:03;;;;;;;8.049999;6.649999;;;;;;;12.32;81.61133;95298.3;;;;
2019/06/14 01:47:04;;;;;;;8.049999;6.649999;;;;;;;12.32;81.61133;95298.3;;;;
2019/06/14 01:48:05;;;;;;;6.849999;6.249999;;;;;;;12.26;82.09375;95298.33;;;;
2019/06/14 01:49:06;;;;;;;6.849999;6.249999;;;;;;;12.26;82.09375;95298.33;;;;
2019/06/14 01:50:07;;;;;;;6.849999;6.249999;;;;;;;12.26;82.09375;95298.33;;;;
2019/06/14 01:51:08;;;;;;;6.849999;6.249999;;;;;;;12.26;82.09375;95298.33;;;;
2019/06/14 01:52:10;;;;;;;6.849999;6.249999;;;;;;;12.26;82.09375;95298.33;;;;
2019/06/14 01:53:11;;;;;;;6.849999;6.249999;;;;;;;12.26;82.09375;95298.33;;;;
2019/06/14 01:54:12;;;;;;;6.849999;6.249999;;;;;;;12.26;82.09375;95298.33;;;;
2019/06/14 01:55:13;;;;;;;6.849999;6.249999;;;;;;;12.26;82.09375;95298.33;;;;
2019/06/14 01:56:14;;;;;;;6.849999;6.249999;;;;;;;12.26;82.09375;95298.33;;;;
2019/06/14 01:57:15;;;;;;;6.849999;6.249999;;;;;;;12.26;82.09375;95298.33;;;;
2019/06/14 01:58:17;;;;;;;7.199999;6.5;;;;;;;12.13;82.48633;95299.06;;;;
2019/06/14 01:59:18;;;;;;;7.199999;6.5;;;;;;;12.13;82.48633;95299.06;;;;
2019/06/14 02:00:19;;;;;;;7.199999;6.5;;;;;;;12.13;82.48633;95299.06;;;;
2019/06/14 02:01:20;;;;;;;7.199999;6.5;;;;;;;12.13;82.48633;95299.06;;;;
2019/06/14 02:02:21;;;;;;;7.199999;6.5;;;;;;;12.13;82.48633;95299.06;;;;
2019/06/14 02:03:22;;;;;;;7.199999;6.5;;;;;;;12.13;82.48633;95299.06;;;;
2019/06/14 02:04:23;;;;;;;7.199999;6.5;;;;;;;12.13;82.48633;95299.06;;;;
2019/06/14 02:05:24;;;;;;;7.199999;6.5;;;;;;;12.13;82.48633;95299.06;;;;
2019/06/14 02:06:25;;;;;;;7.199999;6.5;;;;;;;12.13;82.48633;95299.06;;;;
2019/06/14 02:07:27;;;;;;;7.199999;6.5;;;;;;;12.13;82.48633;95299.06;;;;
2019/06/14 02:08:28;;;;;;;7.600001;6.849999;;;;;;;12.08;83.05664;95290.45;;;;
2019/06/14 02:09:29;;;;;;;7.600001;6.849999;;;;;;;12.08;83.05664;95290.45;;;;
2019/06/14 02:10:30;;;;;;;7.600001;6.849999;;;;;;;12.08;83.05664;95290.45;;;;
2019/06/14 02:11:31;;;;;;;7.600001;6.849999;;;;;;;12.08;83.05664;95290.45;;;;
2019/06/14 02:12:32;;;;;;;7.600001;6.849999;;;;;;;12.08;83.05664;95290.45;;;;
2019/06/14 02:13:33;;;;;;;7.600001;6.849999;;;;;;;12.08;83.05664;95290.45;;;;
2019/06/14 02:14:34;;;;;;;7.600001;6.849999;;;;;;;12.08;83.05664;95290.45;;;;
2019/06/14 02:15:35;;;;;;;7.600001;6.849999;;;;;;;12.08;83.05664;95290.45;;;;
2019/06/14 02:16:37;;;;;;;7.600001;6.849999;;;;;;;12.08;83.05664;95290.45;;;;
2019/06/14 02:17:38;;;;;;;7.600001;6.849999;;;;;;;12.08;83.05664;95290.45;;;;
2019/06/14 02:18:39;;;;;;;7.600001;6.849999;;;;;;;12.08;83.05664;95290.45;;;;
2019/06/14 02:19:40;;;;;;;6.95;6.349999;;;;;;;11.97;83.43066;95311.63;;;;
2019/06/14 02:20:41;;;;;;;6.95;6.349999;;;;;;;11.97;83.43066;95311.63;;;;
2019/06/14 02:21:42;;;;;;;6.95;6.349999;;;;;;;11.97;83.43066;95311.63;;;;
2019/06/14 02:22:43;;;;;;;6.95;6.349999;;;;;;;11.97;83.43066;95311.63;;;;
2019/06/14 02:23:44;;;;;;;6.95;6.349999;;;;;;;11.97;83.43066;95311.63;;;;
2019/06/14 02:24:46;;;;;;;6.95;6.349999;;;;;;;11.97;83.43066;95311.63;;;;
2019/06/14 02:25:47;;;;;;;6.95;6.349999;;;;;;;11.97;83.43066;95311.63;;;;
2019/06/14 02:27:01;;;;;;;6.95;6.349999;;;;;;;11.97;83.43066;95311.63;;;;
2019/06/14 02:28:02;;;;;;;6.95;6.349999;;;;;;;11.97;83.43066;95311.63;;;;
2019/06/14 02:29:03;;;;;;;6.95;6.349999;;;;;;;11.97;83.43066;95311.63;;;;
2019/06/14 02:30:04;;;;;;;6.95;6.349999;;;;;;;11.92;83.98926;95297.08;;;;
2019/06/14 02:31:05;;;;;;;6.95;6.349999;;;;;;;11.92;83.98926;95297.08;;;;
2019/06/14 02:32:06;;;;;;;6.95;6.349999;;;;;;;11.92;83.98926;95297.08;;;;
2019/06/14 02:33:08;;;;;;;6.95;6.349999;;;;;;;11.92;83.98926;95297.08;;;;
2019/06/14 02:34:09;;;;;;;6.95;6.349999;;;;;;;11.92;83.98926;95297.08;;;;
2019/06/14 02:35:10;;;;;;;6.95;6.349999;;;;;;;11.92;83.98926;95297.08;;;;
2019/06/14 02:36:11;;;;;;;6.95;6.349999;;;;;;;11.92;83.98926;95297.08;;;;
2019/06/14 02:37:12;;;;;;;6.95;6.349999;;;;;;;11.92;83.98926;95297.08;;;;
2019/06/14 02:38:14;;;;;;;6.95;6.349999;;;;;;;11.92;83.98926;95297.08;;;;
2019/06/14 02:39:15;;;;;;;6.95;6.349999;;;;;;;11.92;83.98926;95297.08;;;;
2019/06/14 02:40:16;;;;;;;6.95;6.349999;;;;;;;11.92;83.98926;95297.08;;;;
2019/06/14 02:41:17;;;;;;;6.95;6.349999;;;;;;;11.92;83.98926;95297.08;;;;
2019/06/14 02:42:18;;;;;;;6.95;6.349999;;;;;;;11.92;83.98926;95297.08;;;;
2019/06/14 02:43:19;;;;;;;6.95;6.349999;;;;;;;11.92;83.98926;95297.08;;;;
2019/06/14 02:44:20;;;;;;;6.95;6.349999;;;;;;;11.92;83.98926;95297.08;;;;
2019/06/14 02:45:22;;;;;;;6.95;6.349999;;;;;;;11.92;83.98926;95297.08;;;;
2019/06/14 02:46:23;;;;;;;6.95;6.349999;;;;;;;11.92;83.98926;95297.08;;;;
2019/06/14 02:47:24;;;;;;;6.95;6.349999;;;;;;;11.92;83.98926;95297.08;;;;
2019/06/14 02:48:25;;;;;;;6.95;6.349999;;;;;;;11.92;83.98926;95297.08;;;;
2019/06/14 02:49:26;;;;;;;6.95;6.349999;;;;;;;11.92;83.98926;95297.08;;;;
2019/06/14 02:50:27;;;;;;;6.95;6.349999;;;;;;;11.92;83.98926;95297.08;;;;
2019/06/14 02:51:28;;;;;;;7.400001;6.649999;;;;;;;11.88;84.68848;95292.27;;;;
2019/06/14 02:52:29;;;;;;;7.400001;6.649999;;;;;;;11.88;84.68848;95292.27;;;;
2019/06/14 02:53:30;;;;;;;7.400001;6.649999;;;;;;;11.88;84.68848;95292.27;;;;
2019/06/14 02:54:31;;;;;;;7.400001;6.649999;;;;;;;11.88;84.68848;95292.27;;;;
2019/06/14 02:55:32;;;;;;;7.400001;6.649999;;;;;;;11.88;84.68848;95292.27;;;;
2019/06/14 02:56:33;;;;;;;7.400001;6.649999;;;;;;;11.88;84.68848;95292.27;;;;
2019/06/14 02:57:35;;;;;;;7.400001;6.649999;;;;;;;11.88;84.68848;95292.27;;;;
2019/06/14 02:58:36;;;;;;;7.400001;6.649999;;;;;;;11.88;84.68848;95292.27;;;;
2019/06/14 02:59:37;;;;;;;7.400001;6.649999;;;;;;;11.88;84.68848;95292.27;;;;
2019/06/14 03:00:38;;;;;;;7.400001;6.649999;;;;;;;11.88;84.68848;95292.27;;;;
2019/06/14 03:01:39;;;;;;;9.200001;7.099999;;;;;;;11.74;85.24902;95286.88;;;;
2019/06/14 03:02:40;;;;;;;9.200001;7.099999;;;;;;;11.74;85.24902;95286.88;;;;
2019/06/14 03:03:41;;;;;;;9.200001;7.099999;;;;;;;11.74;85.24902;95286.88;;;;
2019/06/14 03:04:42;;;;;;;9.200001;7.099999;;;;;;;11.74;85.24902;95286.88;;;;
2019/06/14 03:05:43;;;;;;;9.200001;7.099999;;;;;;;11.74;85.24902;95286.88;;;;
2019/06/14 03:06:44;;;;;;;9.200001;7.099999;;;;;;;11.74;85.24902;95286.88;;;;
2019/06/14 03:07:45;;;;;;;9.200001;7.099999;;;;;;;11.74;85.24902;95286.88;;;;
2019/06/14 03:08:46;;;;;;;9.200001;7.099999;;;;;;;11.74;85.24902;95286.88;;;;
2019/06/14 03:09:47;;;;;;;9.200001;7.099999;;;;;;;11.74;85.24902;95286.88;;;;
2019/06/14 03:10:48;;;;;;;9.200001;7.099999;;;;;;;11.74;85.24902;95286.88;;;;
2019/06/14 03:11:49;;;;;;;9.200001;7.099999;;;;;;;11.74;85.24902;95286.88;;;;
2019/06/14 03:12:50;;;;;;;8;7.3;;;;;;;11.67;85.68359;95283.92;;;;
2019/06/14 03:13:51;;;;;;;8;7.3;;;;;;;11.67;85.68359;95283.92;;;;
2019/06/14 03:14:53;;;;;;;8;7.3;;;;;;;11.67;85.68359;95283.92;;;;
2019/06/14 03:15:54;;;;;;;8;7.3;;;;;;;11.67;85.68359;95283.92;;;;
2019/06/14 03:16:55;;;;;;;8;7.3;;;;;;;11.67;85.68359;95283.92;;;;
2019/06/14 03:17:56;;;;;;;8;7.3;;;;;;;11.67;85.68359;95283.92;;;;
2019/06/14 03:18:57;;;;;;;8;7.3;;;;;;;11.67;85.68359;95283.92;;;;
2019/06/14 03:19:58;;;;;;;8;7.3;;;;;;;11.67;85.68359;95283.92;;;;
2019/06/14 03:20:59;;;;;;;8;7.3;;;;;;;11.67;85.68359;95283.92;;;;
2019/06/14 03:22:01;;;;;;;8;7.3;;;;;;;11.67;85.68359;95283.92;;;;
2019/06/14 03:23:02;;;;;;;8.3;7.5;;;;;;;11.57;86.16797;95285.57;;;;
2019/06/14 03:24:03;;;;;;;8.3;7.5;;;;;;;11.57;86.16797;95285.57;;;;
2019/06/14 03:25:04;;;;;;;8.3;7.5;;;;;;;11.57;86.16797;95285.57;;;;
2019/06/14 03:26:05;;;;;;;8.3;7.5;;;;;;;11.57;86.16797;95285.57;;;;
2019/06/14 03:27:06;;;;;;;8.3;7.5;;;;;;;11.57;86.16797;95285.57;;;;
2019/06/14 03:28:07;;;;;;;8.3;7.5;;;;;;;11.57;86.16797;95285.57;;;;
2019/06/14 03:29:08;;;;;;;8.3;7.5;;;;;;;11.57;86.16797;95285.57;;;;
2019/06/14 03:30:09;;;;;;;8.3;7.5;;;;;;;11.57;86.16797;95285.57;;;;
2019/06/14 03:31:16;;;;;;;8.3;7.5;;;;;;;11.57;86.16797;95285.57;;;;
2019/06/14 03:32:17;;;;;;;8.3;7.5;;;;;;;11.57;86.16797;95285.57;;;;
2019/06/14 03:33:18;;;;;;;8.4;7.5;;;;;;;11.59;86.7168;95296.01;;;;
2019/06/14 03:34:19;;;;;;;8.4;7.5;;;;;;;11.59;86.7168;95296.01;;;;
2019/06/14 03:35:20;;;;;;;8.4;7.5;;;;;;;11.59;86.7168;95296.01;;;;
2019/06/14 03:36:21;;;;;;;8.4;7.5;;;;;;;11.59;86.7168;95296.01;;;;
2019/06/14 03:37:22;;;;;;;8.4;7.5;;;;;;;11.59;86.7168;95296.01;;;;
2019/06/14 03:38:23;;;;;;;8.4;7.5;;;;;;;11.59;86.7168;95296.01;;;;
2019/06/14 03:39:24;;;;;;;8.4;7.5;;;;;;;11.59;86.7168;95296.01;;;;
2019/06/14 03:40:25;;;;;;;8.4;7.5;;;;;;;11.59;86.7168;95296.01;;;;
2019/06/14 03:41:26;;;;;;;8.4;7.5;;;;;;;11.59;86.7168;95296.01;;;;
2019/06/14 03:42:27;;;;;;;8.4;7.5;;;;;;;11.59;86.7168;95296.01;;;;
2019/06/14 03:43:28;;;;;;;8.4;7.5;;;;;;;11.59;86.7168;95296.01;;;;
2019/06/14 03:44:29;;;;;;;9.950002;9;;;;;;;11.62;87;95314.45;;;;
2019/06/14 03:45:31;;;;;;;9.950002;9;;;;;;;11.62;87;95314.45;;;;
2019/06/14 03:46:32;;;;;;;9.950002;9;;;;;;;11.62;87;95314.45;;;;
2019/06/14 03:47:33;;;;;;;9.950002;9;;;;;;;11.62;87;95314.45;;;;
2019/06/14 03:48:34;;;;;;;9.950002;9;;;;;;;11.62;87;95314.45;;;;
2019/06/14 03:49:35;;;;;;;9.950002;9;;;;;;;11.62;87;95314.45;;;;
2019/06/14 03:50:36;;;;;;;9.950002;9;;;;;;;11.62;87;95314.45;;;;
2019/06/14 03:51:37;;;;;;;9.950002;9;;;;;;;11.62;87;95314.45;;;;
2019/06/14 03:52:38;;;;;;;9.950002;9;;;;;;;11.62;87;95314.45;;;;
2019/06/14 03:53:39;;;;;;;9.950002;9;;;;;;;11.62;87;95314.45;;;;
2019/06/14 03:54:40;;;;;;;9.950002;9;;;;;;;11.62;87;95314.45;;;;
2019/06/14 03:55:41;;;;;;;9.950002;9;;;;;;;11.62;87;95314.45;;;;
2019/06/14 03:56:42;;;;;;;9.950002;9;;;;;;;11.62;87;95314.45;;;;
2019/06/14 03:57:43;;;;;;;9.950002;9;;;;;;;11.62;87;95314.45;;;;
2019/06/14 03:58:45;;;;;;;9.950002;9;;;;;;;11.62;87;95314.45;;;;
2019/06/14 03:59:46;;;;;;;9.950002;9;;;;;;;11.62;87;95314.45;;;;
2019/06/14 04:00:47;;;;;;;9.950002;9;;;;;;;11.62;87;95314.45;;;;
2019/06/14 04:01:48;;;;;;;9.950002;9;;;;;;;11.62;87;95314.45;;;;
2019/06/14 04:02:49;;;;;;;9.950002;9;;;;;;;11.62;87;95314.45;;;;
2019/06/14 04:03:50;;;;;;;9.950002;9;;;;;;;11.62;87;95314.45;;;;
2019/06/14 04:04:51;;;;;;;9.950002;9;;;;;;;11.62;87;95314.45;;;;
2019/06/14 04:05:52;;;;;;;9.950002;9;;;;;;;11.62;87;95314.45;;;;
2019/06/14 04:06:53;;;;;;;9.950002;9;;;;;;;11.62;87;95314.45;;;;
2019/06/14 04:07:54;;;;;;;9.950002;9;;;;;;;11.62;87;95314.45;;;;
2019/06/14 04:08:55;;;;;;;9.950002;9;;;;;;;11.62;87;95314.45;;;;
2019/06/14 04:09:56;;;;;;;9.950002;9;;;;;;;11.62;87;95314.45;;;;
2019/06/14 04:10:57;;;;;;;9.950002;9;;;;;;;11.62;87;95314.45;;;;
2019/06/14 04:11:58;;;;;;;9.950002;9;;;;;;;11.62;87;95314.45;;;;
2019/06/14 04:12:59;;;;;;;9.950002;9;;;;;;;11.62;87;95314.45;;;;
2019/06/14 04:14:00;;;;;;;9.950002;9;;;;;;;11.62;87;95314.45;;;;
2019/06/14 04:15:02;;;;;;;9.950002;9;;;;;;;11.62;87;95314.45;;;;
2019/06/14 04:16:03;;;;;;;9.950002;9;;;;;;;11.62;87;95314.45;;;;
2019/06/14 04:17:04;;;;;;;9.950002;9;;;;;;;11.62;87;95314.45;;;;
2019/06/14 04:18:05;;;;;;;9.950002;9;;;;;;;11.62;87;95314.45;;;;
2019/06/14 04:19:06;;;;;;;9.950002;9;;;;;;;11.62;87;95314.45;;;;
2019/06/14 04:20:07;;;;;;;9.950002;9;;;;;;;11.62;87;95314.45;;;;
2019/06/14 04:21:08;;;;;;;9.950002;9;;;;;;;11.62;87;95314.45;;;;
2019/06/14 04:22:09;;;;;;;9.950002;9;;;;;;;11.62;87;95314.45;;;;
2019/06/14 04:23:11;;;;;;;9.950002;9;;;;;;;11.62;87;95314.45;;;;
2019/06/14 04:24:12;;;;;;;9.950002;9;;;;;;;11.62;87;95314.45;;;;
2019/06/14 04:25:13;;;;;;;9.950002;9;;;;;;;11.62;87;95314.45;;;;
2019/06/14 04:26:14;;;;;;;9.950002;9;;;;;;;11.62;87;95314.45;;;;
2019/06/14 04:27:15;;;;;;;9.950002;9;;;;;;;11.62;87;95314.45;;;;
2019/06/14 04:28:16;;;;;;;9.950002;9;;;;;;;11.62;87;95314.45;;;;
2019/06/14 04:37:18;;;;;;;11.45;10.3;;;;;;;12.79;88.62402;95284.12;;;;
2019/06/14 04:38:19;;;;;;;11.45;10.3;;;;;;;12.79;88.62402;95284.12;;;;
2019/06/14 04:39:20;;;;;;;11.45;10.3;;;;;;;12.79;88.62402;95284.12;;;;
2019/06/14 04:40:21;;;;;;;11.45;10.3;;;;;;;12.79;88.62402;95284.12;;;;
2019/06/14 04:41:22;;;;;;;11.45;10.3;;;;;;;12.79;88.62402;95284.12;;;;
2019/06/14 04:42:23;;;;;;;11.45;10.3;;;;;;;12.79;88.62402;95284.12;;;;
2019/06/14 04:43:24;;;;;;;11.45;10.3;;;;;;;12.79;88.62402;95284.12;;;;
2019/06/14 04:44:25;;;;;;;11.45;10.3;;;;;;;12.79;88.62402;95284.12;;;;
2019/06/14 04:45:26;;;;;;;11.45;10.3;;;;;;;12.79;88.62402;95284.12;;;;
2019/06/14 04:46:27;;;;;;;11.45;10.3;;;;;;;12.79;88.62402;95284.12;;;;
2019/06/14 04:47:28;;;;;;;11.45;10.3;;;;;;;12.79;88.62402;95284.12;;;;
2019/06/14 04:48:29;;;;;;;11.45;10.3;;;;;;;12.79;88.62402;95284.12;;;;
2019/06/14 04:49:30;;;;;;;11.45;10.3;;;;;;;12.79;88.62402;95284.12;;;;
2019/06/14 04:50:31;;;;;;;11.45;10.3;;;;;;;12.79;88.62402;95284.12;;;;
2019/06/14 04:51:33;;;;;;;11.45;10.3;;;;;;;12.79;88.62402;95284.12;;;;
2019/06/14 04:52:34;;;;;;;11.45;10.3;;;;;;;12.79;88.62402;95284.12;;;;
2019/06/14 04:53:35;;;;;;;11.45;10.3;;;;;;;12.79;88.62402;95284.12;;;;
2019/06/14 04:54:36;;;;;;;11.45;10.3;;;;;;;12.79;88.62402;95284.12;;;;
2019/06/14 04:55:37;;;;;;;11.45;10.3;;;;;;;12.79;88.62402;95284.12;;;;
2019/06/14 04:56:38;;;;;;;11.45;10.3;;;;;;;12.79;88.62402;95284.12;;;;
2019/06/14 04:57:39;;;;;;;11.45;10.3;;;;;;;12.79;88.62402;95284.12;;;;
2019/06/14 04:58:40;;;;;;;11.45;10.3;;;;;;;12.79;88.62402;95284.12;;;;
2019/06/14 04:59:41;;;;;;;11.45;10.3;;;;;;;12.79;88.62402;95284.12;;;;
2019/06/14 05:00:42;;;;;;;11.45;10.3;;;;;;;12.79;88.62402;95284.12;;;;
2019/06/14 05:01:43;;;;;;;11.45;10.3;;;;;;;12.79;88.62402;95284.12;;;;
2019/06/14 05:02:44;;;;;;;11.45;10.3;;;;;;;12.79;88.62402;95284.12;;;;
2019/06/14 05:03:45;;;;;;;11.45;10.3;;;;;;;12.79;88.62402;95284.12;;;;
2019/06/14 05:04:46;;;;;;;11.45;10.3;;;;;;;12.79;88.62402;95284.12;;;;
2019/06/14 05:05:47;;;;;;;11.45;10.3;;;;;;;12.79;88.62402;95284.12;;;;
2019/06/14 05:06:54;;;;;;;11.45;10.3;;;;;;;12.79;88.62402;95284.12;;;;
2019/06/14 05:07:55;;;;;;;11.45;10.3;;;;;;;12.79;88.62402;95284.12;;;;
2019/06/14 05:08:56;;;;;;;10.15;7.900001;;;;;;;14.72;88.83008;95276.87;;;;
2019/06/14 05:09:57;;;;;;;10.15;7.900001;;;;;;;14.72;88.83008;95276.87;;;;
2019/06/14 05:10:58;;;;;;;10.15;7.900001;;;;;;;14.72;88.83008;95276.87;;;;
2019/06/14 05:11:59;;;;;;;10.15;7.900001;;;;;;;14.72;88.83008;95276.87;;;;
2019/06/14 05:13:02;;;;;;;10.15;7.900001;;;;;;;14.72;88.83008;95276.87;;;;
2019/06/14 05:14:05;;;;;;;10.15;7.900001;;;;;;;14.72;88.83008;95276.87;;;;
2019/06/14 05:15:07;;;;;;;10.15;7.900001;;;;;;;14.72;88.83008;95276.87;;;;
2019/06/14 05:16:08;;;;;;;10.15;7.900001;;;;;;;14.72;88.83008;95276.87;;;;
2019/06/14 05:17:09;;;;;;;10.15;7.900001;;;;;;;14.72;88.83008;95276.87;;;;
2019/06/14 05:18:10;;;;;;;10.15;7.900001;;;;;;;14.72;88.83008;95276.87;;;;
2019/06/14 05:19:11;;;;;;;10.15;7.900001;;;;;;;14.72;88.83008;95276.87;;;;
2019/06/14 05:20:12;;;;;;;9.199999;7.600001;;;;;;;15.47;88.47266;95260.19;;;;
2019/06/14 05:21:13;;;;;;;9.199999;7.600001;;;;;;;15.47;88.47266;95260.19;;;;
2019/06/14 05:22:14;;;;;;;9.199999;7.600001;;;;;;;15.47;88.47266;95260.19;;;;
2019/06/14 05:23:16;;;;;;;9.199999;7.600001;;;;;;;15.47;88.47266;95260.19;;;;
2019/06/14 05:24:17;;;;;;;9.199999;7.600001;;;;;;;15.47;88.47266;95260.19;;;;
2019/06/14 05:25:18;;;;;;;9.199999;7.600001;;;;;;;15.47;88.47266;95260.19;;;;
2019/06/14 05:26:19;;;;;;;9.199999;7.600001;;;;;;;15.47;88.47266;95260.19;;;;
2019/06/14 05:27:20;;;;;;;9.199999;7.600001;;;;;;;15.47;88.47266;95260.19;;;;
2019/06/14 05:28:21;;;;;;;9.199999;7.600001;;;;;;;15.47;88.47266;95260.19;;;;
2019/06/14 05:29:22;;;;;;;9.199999;7.600001;;;;;;;15.47;88.47266;95260.19;;;;
2019/06/14 05:30:23;;;;;;;9.199999;7.600001;;;;;;;15.47;88.47266;95260.19;;;;
2019/06/14 05:31:24;;;;;;;9.199999;7.600001;;;;;;;15.47;88.47266;95260.19;;;;
2019/06/14 05:32:25;;;;;;;9.199999;7.600001;;;;;;;15.47;88.47266;95260.19;;;;
2019/06/14 05:33:26;;;;;;;9.199999;7.600001;;;;;;;15.47;88.47266;95260.19;;;;
2019/06/14 05:34:28;;;;;;;9.199999;7.600001;;;;;;;15.47;88.47266;95260.19;;;;
2019/06/14 05:35:29;;;;;;;9.199999;7.600001;;;;;;;15.47;88.47266;95260.19;;;;
2019/06/14 05:36:30;;;;;;;9.199999;7.600001;;;;;;;15.47;88.47266;95260.19;;;;
2019/06/14 05:37:31;;;;;;;9.199999;7.600001;;;;;;;15.47;88.47266;95260.19;;;;
2019/06/14 05:38:32;;;;;;;9.199999;7.600001;;;;;;;15.47;88.47266;95260.19;;;;
2019/06/14 05:39:33;;;;;;;9.199999;7.600001;;;;;;;15.47;88.47266;95260.19;;;;
2019/06/14 05:40:34;;;;;;;9.199999;7.600001;;;;;;;15.47;88.47266;95260.19;;;;